Carlsbad (CRQ/KCRQ)

Map

Destinations

Information

Location
Carlsbad, CA
Local Time
22:07 / 10:07 pm
GMT Time
06:07 / 6:07 am
Gates
Unassigned
No FAA reported delays
METAR KCRQ 140553Z AUTO 00000KT 10SM CLR 12/M07 A2997 RMK AO2 SLP146 T01221067 10206 20122 53004
TAF KCRQ 140538Z 1406/1506 VRB05KT P6SM SKC FM142100 VRB04KT P6SM SKC WS015/06020KT